Time;durP1;ratioP1;P1;durP2;ratioP2;P2;SDS_P1;SDS_P2;PMS_P1;PMS_P2;Temp;Humidity;BMP_temperature;BMP_pressure;BME280_temperature;BME280_humidity;BME280_pressure;Samples;Min_cycle;Max_cycle;Signal;HPM_P1;HPM_P2
2022/10/13 00:02:06;;;;;;;33.67;18.50;;;;;;;14.27;97.73;99509.06;4991593;28;20065;-55
2022/10/13 00:04:52;;;;;;;33.63;19.42;;;;;;;13.83;97.37;99511.28;4993122;28;20608;-53
2022/10/13 00:07:37;;;;;;;32.20;19.20;;;;;;;13.76;99.11;99505.59;5006422;28;20026;-54
2022/10/13 00:10:22;;;;;;;33.28;19.52;;;;;;;13.87;99.55;99504.00;4989156;28;20478;-56
2022/10/13 00:13:07;;;;;;;34.33;19.77;;;;;;;13.78;98.59;99506.34;4989436;28;20086;-52
2022/10/13 00:15:53;;;;;;;33.70;19.80;;;;;;;13.64;99.25;99511.72;4989711;28;20511;-54
2022/10/13 00:18:40;;;;;;;38.75;20.88;;;;;;;13.39;100.00;99506.34;4989910;28;20042;-55
2022/10/13 00:21:26;;;;;;;32.97;21.02;;;;;;;13.32;100.00;99499.81;4989574;28;20084;-55
2022/10/13 00:24:11;;;;;;;33.95;19.40;;;;;;;13.37;100.00;99507.38;4990827;28;20046;-52
2022/10/13 00:26:56;;;;;;;36.97;21.48;;;;;;;13.91;99.52;99501.06;4992436;28;20084;-54
2022/10/13 00:29:40;;;;;;;38.35;21.98;;;;;;;13.52;99.99;99503.75;4979645;28;20089;-54
2022/10/13 00:32:25;;;;;;;37.75;21.85;;;;;;;13.58;100.00;99507.72;4989437;28;20038;-56
2022/10/13 00:35:10;;;;;;;33.65;20.10;;;;;;;13.78;100.00;99500.22;4990967;28;20066;-56
2022/10/13 00:37:55;;;;;;;28.83;17.05;;;;;;;13.96;100.00;99498.09;4990424;28;20117;-54
2022/10/13 00:40:43;;;;;;;37.10;21.42;;;;;;;13.73;100.00;99497.06;4989431;28;20486;-55
2022/10/13 00:43:57;;;;;;;36.35;20.92;;;;;;;13.64;100.00;99503.84;4989895;28;20038;-54
2022/10/13 00:46:45;;;;;;;44.60;22.35;;;;;;;13.06;100.00;99503.28;4996878;28;20057;-55
2022/10/13 00:49:30;;;;;;;38.70;21.98;;;;;;;13.10;100.00;99498.66;5001245;28;20053;-56
2022/10/13 00:52:16;;;;;;;35.50;21.85;;;;;;;13.03;100.00;99497.38;4989924;28;20038;-55
2022/10/13 00:55:02;;;;;;;37.25;23.38;;;;;;;12.91;100.00;99489.34;5001799;28;20043;-55
2022/10/13 00:57:53;;;;;;;40.60;23.88;;;;;;;12.62;100.00;99489.50;4989255;28;20133;-52
2022/10/13 01:00:47;;;;;;;46.28;23.65;;;;;;;12.78;100.00;99489.34;4993391;28;20073;-53
2022/10/13 01:03:35;;;;;;;38.58;22.02;;;;;;;12.90;100.00;99492.09;4989913;28;20097;-55
2022/10/13 01:06:22;;;;;;;43.65;24.00;;;;;;;12.67;100.00;99483.94;4988851;28;20497;-53
2022/10/13 01:09:06;;;;;;;35.92;21.38;;;;;;;13.00;100.00;99487.91;4996480;28;20362;-49
2022/10/13 01:12:10;;;;;;;40.38;23.05;;;;;;;12.91;100.00;99485.91;4994231;28;20522;-51
2022/10/13 01:15:09;;;;;;;33.65;19.63;;;;;;;12.88;100.00;99488.72;4994676;28;20046;-50
2022/10/13 01:18:08;;;;;;;30.98;17.88;;;;;;;12.82;100.00;99476.84;4994981;28;20536;-54
2022/10/13 01:21:12;;;;;;;36.67;20.48;;;;;;;12.54;100.00;99476.88;4987804;28;20071;-49
2022/10/13 01:24:37;;;;;;;30.30;18.40;;;;;;;12.81;100.00;99481.25;5006970;28;20490;-53
2022/10/13 01:27:56;;;;;;;31.92;19.70;;;;;;;13.00;100.00;99479.16;5005783;28;20504;-52
2022/10/13 01:30:50;;;;;;;27.92;17.30;;;;;;;13.10;100.00;99482.88;4980603;28;20109;-53
2022/10/13 01:33:43;;;;;;;27.30;16.85;;;;;;;12.92;99.83;99477.06;4993622;28;20121;-55
2022/10/13 01:36:50;;;;;;;29.23;16.90;;;;;;;13.26;100.00;99471.28;4992603;28;20044;-55
2022/10/13 01:40:17;;;;;;;29.55;16.25;;;;;;;13.43;100.00;99475.41;4993215;28;20038;-55
2022/10/13 01:43:28;;;;;;;32.83;16.58;;;;;;;12.93;100.00;99463.81;4994010;28;20044;-53
2022/10/13 01:46:27;;;;;;;30.42;15.68;;;;;;;13.08;100.00;99462.84;4995587;28;20061;-55
2022/10/13 01:49:17;;;;;;;22.42;14.18;;;;;;;13.57;100.00;99458.66;4989940;28;20462;-55
2022/10/13 01:52:12;;;;;;;33.00;17.60;;;;;;;13.34;99.61;99468.97;4979800;28;20065;-51
2022/10/13 01:55:07;;;;;;;29.63;17.90;;;;;;;13.03;100.00;99455.28;4991544;28;20137;-52
2022/10/13 01:57:51;;;;;;;26.92;17.67;;;;;;;13.09;100.00;99459.31;4993813;28;20540;-54
2022/10/13 02:00:47;;;;;;;28.05;17.00;;;;;;;12.88;100.00;99462.41;4992519;28;20042;-56
2022/10/13 02:03:42;;;;;;;28.35;16.52;;;;;;;12.87;100.00;99458.97;5000089;28;20038;-51
2022/10/13 02:06:35;;;;;;;31.17;17.80;;;;;;;12.75;100.00;99450.09;5007446;28;20061;-53
2022/10/13 02:09:38;;;;;;;31.40;17.95;;;;;;;12.61;100.00;99444.94;4993502;28;20474;-54
2022/10/13 02:12:28;;;;;;;29.05;16.58;;;;;;;12.76;100.00;99454.41;4993843;28;20442;-55
2022/10/13 02:15:18;;;;;;;29.23;16.65;;;;;;;12.65;100.00;99442.00;4990298;28;20165;-53
2022/10/13 02:18:06;;;;;;;27.83;16.67;;;;;;;12.71;100.00;99439.91;4993550;28;20113;-51
2022/10/13 02:20:51;;;;;;;29.48;17.48;;;;;;;12.15;100.00;99432.09;4993128;28;20086;-50
2022/10/13 02:23:36;;;;;;;31.33;16.67;;;;;;;12.61;100.00;99437.88;4992101;28;20125;-53
2022/10/13 02:26:21;;;;;;;27.35;17.00;;;;;;;12.75;100.00;99441.38;4992587;28;20097;-52
2022/10/13 02:29:10;;;;;;;24.02;15.02;;;;;;;12.60;100.00;99440.63;4990936;28;20034;-49
2022/10/13 02:31:54;;;;;;;23.95;13.95;;;;;;;12.94;100.00;99435.72;4991870;28;20077;-53
2022/10/13 02:34:39;;;;;;;34.45;18.67;;;;;;;12.64;98.12;99429.81;4991684;28;20045;-53
2022/10/13 02:37:24;;;;;;;30.80;17.83;;;;;;;12.52;100.00;99425.34;4993534;28;20030;-49
2022/10/13 02:40:10;;;;;;;30.85;17.90;;;;;;;12.41;100.00;99423.44;4992363;28;20027;-51
2022/10/13 02:42:54;;;;;;;32.00;19.20;;;;;;;12.41;100.00;99424.28;4991626;28;20041;-58
2022/10/13 02:45:39;;;;;;;33.08;16.42;;;;;;;12.83;100.00;99423.28;5002969;28;20046;-56
2022/10/13 02:48:24;;;;;;;36.53;20.20;;;;;;;12.42;100.00;99425.94;4993990;28;20037;-53
2022/10/13 02:51:09;;;;;;;37.05;19.77;;;;;;;12.04;100.00;99429.28;4992291;28;20125;-51
2022/10/13 02:53:53;;;;;;;24.92;16.00;;;;;;;12.44;100.00;99423.22;4989759;28;20034;-54
2022/10/13 02:56:38;;;;;;;29.08;17.45;;;;;;;12.84;100.00;99422.38;4994201;28;20042;-54
2022/10/13 02:59:23;;;;;;;26.73;15.40;;;;;;;12.96;100.00;99425.09;5004017;28;20046;-54
2022/10/13 03:02:08;;;;;;;29.63;16.92;;;;;;;13.05;100.00;99435.00;4991374;28;20047;-50
2022/10/13 03:04:53;;;;;;;29.88;16.70;;;;;;;13.06;100.00;99434.03;4985346;28;20046;-54
2022/10/13 03:07:37;;;;;;;27.13;16.20;;;;;;;12.96;100.00;99430.38;4974791;28;20501;-53
2022/10/13 03:10:22;;;;;;;29.95;16.13;;;;;;;12.85;100.00;99434.56;4992885;28;20038;-53
2022/10/13 03:13:09;;;;;;;28.55;15.98;;;;;;;12.53;100.00;99429.66;4992577;28;20509;-58
2022/10/13 03:15:54;;;;;;;23.90;14.65;;;;;;;12.85;100.00;99431.06;4991076;28;20056;-54
2022/10/13 03:18:39;;;;;;;25.90;16.08;;;;;;;12.42;99.97;99430.38;4994570;28;20055;-53
2022/10/13 03:21:23;;;;;;;30.17;16.65;;;;;;;12.04;100.00;99431.91;4981860;28;20619;-54
2022/10/13 03:24:08;;;;;;;26.88;16.10;;;;;;;11.89;100.00;99431.09;4992010;28;20117;-54
2022/10/13 03:26:53;;;;;;;27.25;15.85;;;;;;;12.04;100.00;99435.38;4991231;28;20069;-54
2022/10/13 03:29:38;;;;;;;24.02;15.55;;;;;;;11.99;100.00;99432.19;4998125;28;20133;-54
2022/10/13 03:32:22;;;;;;;28.38;14.75;;;;;;;12.27;100.00;99438.31;4995352;28;20038;-54
2022/10/13 03:35:09;;;;;;;24.00;14.57;;;;;;;12.12;100.00;99434.91;4994615;28;20120;-54
2022/10/13 03:37:53;;;;;;;27.30;14.77;;;;;;;11.83;100.00;99432.34;4994536;28;20046;-53
2022/10/13 03:40:39;;;;;;;21.95;13.75;;;;;;;12.06;100.00;99430.84;4991485;28;20033;-51
2022/10/13 03:43:24;;;;;;;26.83;13.70;;;;;;;12.17;100.00;99430.22;4989892;28;20039;-54
2022/10/13 03:46:11;;;;;;;21.48;13.73;;;;;;;12.59;100.00;99429.25;4988941;28;20038;-53
2022/10/13 03:48:56;;;;;;;20.63;13.43;;;;;;;12.58;100.00;99432.84;4989708;28;20041;-52
2022/10/13 03:51:41;;;;;;;25.55;14.35;;;;;;;12.57;100.00;99429.34;4989356;28;20185;-57
2022/10/13 03:54:25;;;;;;;24.13;15.20;;;;;;;12.64;95.75;99423.69;4989939;28;20486;-54
2022/10/13 03:57:11;;;;;;;24.20;14.23;;;;;;;12.35;100.00;99422.06;4988975;28;20113;-50
2022/10/13 03:59:56;;;;;;;28.77;16.90;;;;;;;11.80;100.00;99430.72;4992162;28;20038;-50
2022/10/13 04:02:48;;;;;;;25.27;16.23;;;;;;;11.91;100.00;99429.22;4991562;28;20026;-49
2022/10/13 04:05:35;;;;;;;26.30;16.50;;;;;;;11.87;100.00;99425.94;4975861;28;20057;-52
2022/10/13 04:08:20;;;;;;;25.77;15.18;;;;;;;11.79;100.00;99425.56;4990849;28;20038;-54
2022/10/13 04:11:08;;;;;;;28.85;16.15;;;;;;;11.51;100.00;99420.28;4992047;28;20035;-54
2022/10/13 04:13:55;;;;;;;31.25;18.17;;;;;;;11.87;100.00;99423.31;4996127;28;20438;-54
2022/10/13 04:16:40;;;;;;;30.55;17.65;;;;;;;11.92;100.00;99421.25;4991795;28;20034;-50
2022/10/13 04:19:24;;;;;;;26.85;15.68;;;;;;;12.20;100.00;99423.91;4988138;28;20080;-52
2022/10/13 04:22:09;;;;;;;27.55;15.80;;;;;;;11.46;100.00;99415.31;4993334;28;20052;-50
2022/10/13 04:24:54;;;;;;;30.02;17.35;;;;;;;11.09;100.00;99414.94;4991735;28;20116;-52
2022/10/13 04:27:38;;;;;;;26.25;16.17;;;;;;;10.96;100.00;99414.84;4992866;28;20082;-52
2022/10/13 04:30:26;;;;;;;27.40;16.17;;;;;;;10.67;100.00;99417.41;4989997;28;20401;-54
2022/10/13 04:33:11;;;;;;;30.83;16.60;;;;;;;10.50;100.00;99415.75;4994179;28;20042;-51
2022/10/13 04:35:56;;;;;;;28.67;16.75;;;;;;;10.63;100.00;99419.38;4999843;28;20042;-52
2022/10/13 04:38:42;;;;;;;29.33;15.85;;;;;;;10.51;100.00;99420.09;5001931;28;20049;-50
2022/10/13 04:41:27;;;;;;;25.15;15.25;;;;;;;10.55;100.00;99424.22;4986808;28;20426;-49
2022/10/13 04:44:11;;;;;;;32.35;16.45;;;;;;;10.53;100.00;99423.44;4980049;28;20039;-56
2022/10/13 04:46:59;;;;;;;30.95;17.17;;;;;;;10.43;100.00;99425.75;4987100;28;20116;-49
2022/10/13 04:49:44;;;;;;;27.95;15.05;;;;;;;10.51;100.00;99423.53;5003966;28;20042;-55
2022/10/13 04:52:28;;;;;;;28.83;16.65;;;;;;;11.70;100.00;99433.09;4998236;28;20069;-54
2022/10/13 04:55:14;;;;;;;26.30;15.40;;;;;;;11.01;100.00;99427.69;4993859;28;20101;-52
2022/10/13 04:57:59;;;;;;;29.98;15.80;;;;;;;10.74;100.00;99423.16;5007772;28;20073;-54
2022/10/13 05:00:45;;;;;;;29.13;15.65;;;;;;;10.68;100.00;99425.19;5009891;28;20486;-53
2022/10/13 05:03:30;;;;;;;27.55;16.38;;;;;;;10.54;100.00;99425.16;4980673;28;20122;-53
2022/10/13 05:06:19;;;;;;;27.00;15.80;;;;;;;10.41;100.00;99424.97;4992319;28;20038;-53
2022/10/13 05:09:06;;;;;;;30.10;16.92;;;;;;;10.51;100.00;99422.72;4979077;28;20066;-55
2022/10/13 05:11:53;;;;;;;28.02;16.25;;;;;;;10.46;100.00;99431.66;5011251;28;20478;-50
2022/10/13 05:14:40;;;;;;;23.30;14.60;;;;;;;11.33;100.00;99425.72;5002210;28;20128;-52
2022/10/13 05:17:25;;;;;;;24.95;13.93;;;;;;;14.25;100.00;99417.88;5017002;28;20069;-53
2022/10/13 05:20:10;;;;;;;29.35;14.43;;;;;;;14.32;100.00;99426.16;5007519;28;20442;-54
2022/10/13 05:22:55;;;;;;;23.60;14.23;;;;;;;14.45;100.00;99428.75;4996289;28;20050;-55
2022/10/13 05:25:41;;;;;;;23.55;15.68;;;;;;;14.25;93.51;99428.41;5002747;28;20443;-52
2022/10/13 05:28:28;;;;;;;26.75;14.63;;;;;;;13.77;93.92;99430.91;4999321;28;20048;-54
2022/10/13 05:31:19;;;;;;;27.83;14.77;;;;;;;14.08;95.45;99419.97;4996980;28;20512;-56
2022/10/13 05:34:03;;;;;;;18.38;11.93;;;;;;;13.89;98.69;99425.72;4998188;28;20153;-53
2022/10/13 05:36:48;;;;;;;22.00;12.45;;;;;;;14.01;97.43;99429.25;4998423;28;20133;-54
2022/10/13 05:39:33;;;;;;;21.05;12.25;;;;;;;14.50;93.20;99432.72;4993966;28;20050;-49
2022/10/13 05:42:19;;;;;;;23.30;13.80;;;;;;;14.12;93.99;99441.66;4994896;28;20041;-52
2022/10/13 05:45:08;;;;;;;23.25;12.05;;;;;;;13.86;93.78;99447.00;4991717;28;20093;-54
2022/10/13 05:47:53;;;;;;;20.83;13.32;;;;;;;14.90;93.67;99438.63;5003492;28;20117;-51
2022/10/13 05:50:37;;;;;;;21.27;13.27;;;;;;;14.28;87.72;99430.84;4991275;28;20038;-52
2022/10/13 05:53:25;;;;;;;18.15;11.75;;;;;;;14.15;94.79;99431.72;4995244;28;20121;-51
2022/10/13 05:56:17;;;;;;;26.05;14.50;;;;;;;12.87;92.51;99435.31;4991207;28;20045;-50
2022/10/13 05:59:05;;;;;;;26.30;16.30;;;;;;;12.79;96.54;99440.22;4992353;28;20422;-53
2022/10/13 06:01:51;;;;;;;22.10;13.20;;;;;;;12.86;100.00;99443.28;4995775;28;20039;-52
2022/10/13 06:04:45;;;;;;;23.25;14.13;;;;;;;12.88;95.79;99452.75;4992993;28;20413;-54
2022/10/13 06:07:30;;;;;;;25.00;15.18;;;;;;;12.39;99.98;99451.59;4995724;28;20050;-53
2022/10/13 06:10:15;;;;;;;24.65;15.32;;;;;;;12.06;99.57;99451.84;4994133;28;20049;-53
2022/10/13 06:13:00;;;;;;;20.67;13.25;;;;;;;13.02;100.00;99459.69;4995622;28;20500;-52
2022/10/13 06:15:44;;;;;;;23.67;13.93;;;;;;;13.84;91.98;99460.28;4993550;28;20137;-52
2022/10/13 06:18:29;;;;;;;20.67;12.40;;;;;;;13.55;98.04;99460.56;4995444;28;20044;-54
2022/10/13 06:21:13;;;;;;;26.73;14.43;;;;;;;13.11;93.38;99467.91;4992205;28;20129;-50
2022/10/13 06:23:58;;;;;;;30.75;17.98;;;;;;;13.28;94.45;99466.78;4978643;28;20038;-54
2022/10/13 06:26:42;;;;;;;28.20;16.33;;;;;;;13.22;93.20;99470.66;4993839;28;20104;-54
2022/10/13 06:29:27;;;;;;;27.60;17.33;;;;;;;12.92;96.69;99461.28;4986333;28;20390;-53
2022/10/13 06:32:12;;;;;;;29.73;17.50;;;;;;;12.61;96.48;99465.94;4990642;28;20112;-53
2022/10/13 06:34:57;;;;;;;30.85;14.95;;;;;;;13.49;94.09;99468.84;4992521;28;20539;-52
2022/10/13 06:37:41;;;;;;;21.88;14.07;;;;;;;12.79;96.90;99462.13;4992280;28;20472;-54
2022/10/13 06:44:30;;;;;;;31.20;16.40;;;;;;;12.33;97.43;99458.09;4992487;28;20049;-55
2022/10/13 06:47:19;;;;;;;29.43;16.40;;;;;;;12.13;99.00;99464.63;5008873;28;20054;-54
2022/10/13 06:50:04;;;;;;;29.23;17.40;;;;;;;11.94;100.00;99460.53;4989138;28;20042;-56
2022/10/13 06:52:48;;;;;;;27.20;15.65;;;;;;;12.19;99.25;99454.56;4980022;28;20429;-55
2022/10/13 06:55:34;;;;;;;37.30;17.13;;;;;;;12.28;98.16;99457.53;4994837;28;20373;-57
2022/10/13 06:58:19;;;;;;;28.38;16.15;;;;;;;12.39;98.49;99456.84;4996950;28;20113;-55
2022/10/13 07:01:04;;;;;;;28.95;17.77;;;;;;;12.39;97.87;99462.94;4996669;28;20057;-54
2022/10/13 07:03:50;;;;;;;39.15;18.98;;;;;;;12.34;98.44;99456.31;4994355;28;20029;-54
2022/10/13 07:06:37;;;;;;;36.35;19.95;;;;;;;12.32;98.01;99457.25;4995513;28;20490;-54
2022/10/13 07:09:22;;;;;;;32.97;18.85;;;;;;;12.13;98.99;99454.97;4997472;28;20030;-56
2022/10/13 07:12:07;;;;;;;29.13;18.13;;;;;;;12.14;99.54;99458.44;4994101;28;20058;-53
2022/10/13 07:14:51;;;;;;;33.80;18.20;;;;;;;12.16;99.39;99459.16;4995227;28;20125;-57
2022/10/13 07:17:36;;;;;;;29.85;17.55;;;;;;;12.43;97.52;99458.34;4990946;28;20038;-54
2022/10/13 07:20:23;;;;;;;29.40;17.00;;;;;;;12.34;98.20;99457.13;4989793;28;20462;-55
2022/10/13 07:23:07;;;;;;;30.13;17.80;;;;;;;12.66;97.54;99450.72;4992957;28;20030;-56
2022/10/13 07:25:55;;;;;;;29.40;17.23;;;;;;;12.68;96.52;99452.28;4993814;28;20129;-59
2022/10/13 07:28:40;;;;;;;31.50;17.85;;;;;;;12.83;95.28;99457.47;4993839;28;20065;-50
2022/10/13 07:31:26;;;;;;;30.20;17.45;;;;;;;12.75;95.42;99452.72;4993349;28;20030;-51
2022/10/13 07:34:12;;;;;;;30.05;18.02;;;;;;;12.53;95.81;99455.94;4988689;28;20074;-52
2022/10/13 07:36:56;;;;;;;31.05;18.42;;;;;;;12.49;96.42;99449.19;4990053;28;20043;-51
2022/10/13 07:39:41;;;;;;;36.03;18.95;;;;;;;12.49;96.50;99444.78;4992099;28;20859;-50
2022/10/13 07:42:26;;;;;;;31.13;17.63;;;;;;;12.63;96.27;99451.75;4991320;28;20046;-57
2022/10/13 07:45:10;;;;;;;30.13;17.48;;;;;;;12.75;95.04;99447.47;4994146;28;20042;-53
2022/10/13 07:47:55;;;;;;;33.90;19.52;;;;;;;12.99;94.14;99444.13;4991468;28;20038;-54
2022/10/13 07:50:40;;;;;;;34.85;18.02;;;;;;;14.18;89.43;99449.13;4976508;28;20035;-52
2022/10/13 07:53:25;;;;;;;30.55;18.95;;;;;;;13.77;88.91;99451.97;4990168;28;20383;-52
2022/10/13 07:56:11;;;;;;;34.45;18.25;;;;;;;14.62;86.02;99432.75;5003364;28;20481;-56
2022/10/13 07:58:56;;;;;;;36.95;19.75;;;;;;;14.66;84.58;99439.47;4981976;28;20185;-56
2022/10/13 08:01:41;;;;;;;31.52;17.80;;;;;;;14.37;85.83;99434.59;4992561;28;20038;-52
2022/10/13 08:04:33;;;;;;;30.05;17.52;;;;;;;14.09;87.68;99437.47;4995808;28;20117;-54
2022/10/13 08:07:21;;;;;;;29.08;16.88;;;;;;;14.04;87.96;99442.22;4993824;28;20039;-55
2022/10/13 08:10:07;;;;;;;30.80;16.67;;;;;;;14.58;88.57;99442.69;4978588;28;20116;-53
2022/10/13 08:12:52;;;;;;;29.40;16.83;;;;;;;14.35;88.52;99444.41;4992945;28;20034;-54
2022/10/13 08:15:42;;;;;;;30.55;17.42;;;;;;;14.63;84.81;99440.56;4995237;28;20045;-56
2022/10/13 08:18:26;;;;;;;26.70;17.73;;;;;;;14.38;86.39;99442.38;4989977;28;20030;-52
2022/10/13 08:21:16;;;;;;;27.02;15.45;;;;;;;14.60;90.61;99430.25;4990613;28;20046;-59
2022/10/13 08:24:00;;;;;;;26.25;16.50;;;;;;;15.30;85.64;99439.97;4988091;28;20512;-55
2022/10/13 08:26:45;;;;;;;22.50;14.23;;;;;;;16.13;83.72;99442.31;4992651;28;20077;-58
2022/10/13 08:29:30;;;;;;;26.63;15.07;;;;;;;17.54;74.65;99443.09;4993440;28;20466;-58
2022/10/13 08:32:15;;;;;;;22.30;12.43;;;;;;;18.27;72.17;99436.69;4990620;28;20042;-57
2022/10/13 08:34:59;;;;;;;25.90;15.02;;;;;;;16.87;73.13;99431.03;4990927;28;20118;-58
2022/10/13 08:37:45;;;;;;;30.25;17.73;;;;;;;15.04;82.55;99440.19;4997112;28;20074;-51
2022/10/13 08:40:30;;;;;;;24.33;14.43;;;;;;;16.97;78.59;99436.38;4985590;28;20424;-57
2022/10/13 08:43:23;;;;;;;24.52;15.05;;;;;;;16.82;75.26;99427.94;4997465;28;20034;-53
2022/10/13 08:46:09;;;;;;;25.65;14.68;;;;;;;16.00;77.23;99434.53;4988871;28;20054;-63
2022/10/13 08:48:57;;;;;;;25.52;14.15;;;;;;;15.98;77.73;99432.97;4991496;28;20426;-54
2022/10/13 08:51:42;;;;;;;29.67;15.60;;;;;;;15.69;79.22;99436.13;4981497;28;20073;-56
2022/10/13 08:54:27;;;;;;;27.27;15.07;;;;;;;15.83;78.88;99435.84;4994534;28;20034;-52
2022/10/13 08:57:12;;;;;;;22.35;14.70;;;;;;;16.08;78.44;99433.91;4988836;28;20451;-55
2022/10/13 08:59:57;;;;;;;27.40;14.45;;;;;;;16.72;73.05;99434.00;4990960;28;20052;-53
2022/10/13 09:02:43;;;;;;;27.40;16.90;;;;;;;16.57;75.52;99425.53;4991962;28;20113;-53
2022/10/13 09:05:42;;;;;;;27.30;15.20;;;;;;;17.19;73.39;99438.06;4991702;28;20039;-51
2022/10/13 09:08:40;;;;;;;27.05;16.90;;;;;;;15.80;78.66;99436.09;4990238;28;20038;-55
2022/10/13 09:11:29;;;;;;;30.98;15.25;;;;;;;16.06;79.43;99437.66;4990749;28;20058;-53
2022/10/13 09:14:22;;;;;;;25.98;14.70;;;;;;;16.21;78.41;99440.81;4993789;28;20367;-52
2022/10/13 09:17:18;;;;;;;29.23;15.73;;;;;;;16.09;77.40;99443.50;4983042;28;20092;-51
2022/10/13 09:20:07;;;;;;;28.73;17.02;;;;;;;16.12;78.44;99447.72;4990828;28;20034;-52
2022/10/13 09:23:18;;;;;;;34.22;17.90;;;;;;;15.94;77.91;99442.94;4990417;28;20426;-55
2022/10/13 09:26:12;;;;;;;32.65;17.73;;;;;;;16.12;77.80;99434.50;4988729;28;20054;-57
2022/10/13 09:28:56;;;;;;;29.55;16.80;;;;;;;16.22;76.78;99435.41;4985594;28;20533;-54
2022/10/13 09:31:41;;;;;;;30.88;17.25;;;;;;;15.68;80.24;99437.09;4994630;28;20041;-53
2022/10/13 09:34:27;;;;;;;30.42;16.83;;;;;;;15.93;79.06;99440.41;5000172;28;20034;-52
2022/10/13 09:37:18;;;;;;;31.88;17.58;;;;;;;15.57;80.30;99444.03;4995404;28;20414;-57
2022/10/13 09:40:20;;;;;;;27.58;16.00;;;;;;;16.22;78.27;99443.34;4996798;28;20042;-50
2022/10/13 09:43:17;;;;;;;32.83;17.70;;;;;;;16.43;77.32;99436.44;4995488;28;20038;-51
2022/10/13 09:46:31;;;;;;;25.48;16.17;;;;;;;16.08;78.46;99431.25;4988653;28;20042;-51
2022/10/13 09:49:22;;;;;;;26.83;14.65;;;;;;;16.17;78.06;99431.47;4994900;28;20129;-52
2022/10/13 09:52:15;;;;;;;29.15;16.58;;;;;;;16.23;77.84;99433.63;4997082;28;20030;-54
2022/10/13 09:55:00;;;;;;;28.67;16.33;;;;;;;16.10;78.82;99428.50;4991422;28;20470;-53
2022/10/13 09:57:50;;;;;;;28.33;17.88;;;;;;;15.57;80.87;99428.19;4998487;28;20046;-53
2022/10/13 10:00:36;;;;;;;30.52;17.35;;;;;;;15.96;80.08;99425.13;5000994;28;20134;-55
2022/10/13 10:03:25;;;;;;;28.95;16.40;;;;;;;16.34;79.57;99423.00;4992552;28;20049;-53
2022/10/13 10:06:14;;;;;;;27.42;16.02;;;;;;;16.79;76.04;99421.13;4992854;28;20490;-54
2022/10/13 10:09:12;;;;;;;27.63;17.90;;;;;;;16.40;77.54;99421.69;4999583;28;20050;-52
2022/10/13 10:11:59;;;;;;;26.08;17.17;;;;;;;16.56;76.90;99410.66;4993364;28;20164;-54
2022/10/13 10:14:44;;;;;;;27.90;17.75;;;;;;;16.98;75.79;99416.88;4983349;28;20049;-51
2022/10/13 10:17:42;;;;;;;31.27;17.13;;;;;;;16.72;76.75;99423.44;5003218;28;20043;-55
2022/10/13 10:20:39;;;;;;;26.92;16.52;;;;;;;17.23;74.80;99420.13;4993057;28;20133;-53
2022/10/13 10:23:26;;;;;;;23.80;15.48;;;;;;;17.34;76.25;99417.38;4997234;28;20034;-51
2022/10/13 10:26:32;;;;;;;27.50;16.25;;;;;;;17.26;75.15;99419.00;4977253;28;20478;-52
2022/10/13 10:29:23;;;;;;;33.08;17.42;;;;;;;17.36;75.16;99409.28;4954595;28;20144;-51
2022/10/13 10:32:26;;;;;;;26.13;16.02;;;;;;;17.69;74.58;99406.47;4942482;28;20040;-52
2022/10/13 10:35:31;;;;;;;25.00;15.13;;;;;;;18.25;72.28;99396.22;4958689;28;20066;-51
2022/10/13 10:38:22;;;;;;;22.48;14.52;;;;;;;18.89;69.22;99397.53;4954467;28;20130;-54
2022/10/13 10:41:41;;;;;;;24.27;14.73;;;;;;;18.43;70.01;99400.81;4952885;28;20067;-59
2022/10/13 10:44:37;;;;;;;26.60;15.35;;;;;;;17.57;73.48;99392.50;4962423;28;20324;-55
2022/10/13 10:47:30;;;;;;;22.00;13.02;;;;;;;17.86;75.54;99394.34;4951331;28;20062;-66
2022/10/13 10:50:17;;;;;;;20.30;13.45;;;;;;;18.57;70.38;99392.41;4955452;28;20054;-57
2022/10/13 10:53:15;;;;;;;23.55;13.98;;;;;;;17.82;72.68;99392.97;4954862;28;20391;-55
2022/10/13 10:56:21;;;;;;;21.38;14.52;;;;;;;18.09;72.88;99386.16;4947566;28;20394;-56
2022/10/13 10:59:09;;;;;;;23.88;15.23;;;;;;;17.68;73.00;99396.81;4957332;28;20070;-56
2022/10/13 11:02:17;;;;;;;23.58;14.02;;;;;;;17.07;76.05;99394.09;4959059;28;20129;-54
2022/10/13 11:05:03;;;;;;;26.90;16.55;;;;;;;16.94;76.91;99389.84;4953471;28;20135;-55
2022/10/13 11:07:51;;;;;;;27.13;16.85;;;;;;;17.15;75.67;99388.16;4995683;28;20576;-56
2022/10/13 11:10:35;;;;;;;23.77;15.38;;;;;;;16.90;77.05;99382.31;4990867;28;20042;-55
2022/10/13 11:13:21;;;;;;;36.72;15.85;;;;;;;16.88;77.80;99377.13;4991444;28;20058;-55
2022/10/13 11:16:27;;;;;;;27.73;15.75;;;;;;;16.95;77.50;99377.47;4992552;28;20122;-53
2022/10/13 11:19:38;;;;;;;21.63;13.98;;;;;;;16.96;77.69;99368.53;4982247;28;20477;-58
2022/10/13 11:22:24;;;;;;;30.90;15.93;;;;;;;16.93;77.74;99367.00;5008467;28;20054;-59
2022/10/13 11:25:38;;;;;;;26.40;15.45;;;;;;;17.41;76.56;99362.06;5014301;28;20067;-54
2022/10/13 11:28:25;;;;;;;23.83;13.73;;;;;;;17.57;75.28;99352.75;4993348;28;20030;-55
2022/10/13 11:31:13;;;;;;;24.27;14.00;;;;;;;17.77;74.24;99351.00;4993458;28;20042;-53
2022/10/13 11:34:00;;;;;;;22.23;13.95;;;;;;;17.91;73.35;99348.88;4993424;28;20038;-56
2022/10/13 11:36:54;;;;;;;23.17;14.30;;;;;;;18.16;72.22;99350.19;5006380;28;20125;-53
2022/10/13 11:39:46;;;;;;;25.42;14.00;;;;;;;18.18;71.26;99345.56;4998712;28;20074;-58
2022/10/13 11:42:46;;;;;;;24.92;14.13;;;;;;;18.20;71.72;99340.13;4989593;28;20126;-53
2022/10/13 11:45:48;;;;;;;22.48;12.05;;;;;;;19.08;68.56;99325.78;4992456;28;20101;-56
2022/10/13 11:48:40;;;;;;;19.25;11.75;;;;;;;19.66;67.74;99330.09;4994450;28;20121;-55
2022/10/13 11:52:27;;;;;;;17.88;11.88;;;;;;;19.16;67.56;99322.41;4991731;28;20042;-51
2022/10/13 11:55:18;;;;;;;19.23;11.30;;;;;;;19.68;66.06;99317.50;4936227;28;20047;-54
2022/10/13 11:58:29;;;;;;;22.15;12.80;;;;;;;20.28;64.53;99304.56;4930810;28;20054;-51
2022/10/13 12:01:18;;;;;;;20.80;12.70;;;;;;;20.00;63.96;99308.16;4938449;28;20130;-57
2022/10/13 12:04:13;;;;;;;17.25;10.88;;;;;;;19.99;65.25;99308.31;4928856;28;20048;-56
2022/10/13 12:07:05;;;;;;;21.13;12.00;;;;;;;20.31;63.85;99301.59;4941063;28;20127;-57
2022/10/13 12:09:55;;;;;;;20.02;11.18;;;;;;;20.38;63.08;99297.34;4935254;29;20087;-57
2022/10/13 12:12:50;;;;;;;19.05;11.77;;;;;;;20.28;62.65;99299.25;4938503;28;20070;-58
2022/10/13 12:15:40;;;;;;;18.20;11.07;;;;;;;20.62;61.76;99298.47;4941161;28;20058;-58
2022/10/13 12:18:32;;;;;;;21.83;11.23;;;;;;;21.36;59.83;99294.47;4941130;28;20069;-53
2022/10/13 12:21:21;;;;;;;20.67;12.07;;;;;;;20.62;62.24;99292.28;4926769;29;20510;-55
2022/10/13 12:24:08;;;;;;;19.00;11.35;;;;;;;21.10;60.94;99289.22;4942025;28;20098;-58
2022/10/13 12:26:53;;;;;;;17.77;10.05;;;;;;;22.61;55.81;99277.63;4937532;28;20110;-54
2022/10/13 12:29:39;;;;;;;22.60;11.15;;;;;;;21.98;56.40;99270.22;4978605;28;20505;-55
2022/10/13 12:32:27;;;;;;;18.73;10.55;;;;;;;22.14;56.45;99269.38;4992655;28;20041;-57
2022/10/13 12:35:17;;;;;;;20.77;10.80;;;;;;;21.87;56.97;99276.72;4991556;28;20092;-58
2022/10/13 12:38:12;;;;;;;21.40;11.52;;;;;;;21.98;56.71;99267.56;4993659;28;20530;-55
2022/10/13 12:40:57;;;;;;;17.15;11.02;;;;;;;22.27;55.36;99261.69;4991404;28;20113;-55
2022/10/13 12:43:43;;;;;;;16.95;9.18;;;;;;;23.43;52.93;99264.09;4992591;28;20754;-56
2022/10/13 12:46:39;;;;;;;19.10;10.90;;;;;;;23.56;52.32;99261.66;4996327;28;20149;-58
2022/10/13 12:49:29;;;;;;;18.02;8.90;;;;;;;23.40;51.61;99256.44;4989058;28;20034;-57
2022/10/13 12:52:18;;;;;;;16.38;9.52;;;;;;;22.88;51.81;99267.53;4991518;28;20038;-57
2022/10/13 12:55:14;;;;;;;16.65;9.23;;;;;;;22.60;53.36;99263.47;4989194;28;20045;-57
2022/10/13 12:58:01;;;;;;;19.17;10.68;;;;;;;22.75;52.94;99257.41;4991208;28;20057;-56
2022/10/13 13:00:56;;;;;;;19.02;10.25;;;;;;;22.71;53.62;99251.56;4989833;28;20042;-54